Time,TemperatureF,DewpointF,PressureIn,WindDirection,WindDirectionDegrees,WindSpeedMPH,WindSpeedGustMPH,Humidity,HourlyPrecipIn,Conditions,Clouds,dailyrainin,SolarRadiationWatts/m^2,SoftwareType,DateUTC
2013-01-27 00:01:00,53.0,51.0,-100.00,North,2,2.0,5.0,92,0.00,,,0.00,0.000000,,2013-01-27 06:01:00,
2013-01-27 00:11:00,53.0,51.0,-100.00,North,2,2.0,5.0,92,0.00,,,0.00,0.000000,,2013-01-27 06:11:00,
2013-01-27 00:32:00,52.0,50.0,-100.00,North,10,3.0,6.0,93,0.00,,,0.00,0.000000,,2013-01-27 06:32:00,
2013-01-27 00:42:00,52.0,50.0,-100.00,North,10,3.0,6.0,93,0.00,,,0.00,0.000000,,2013-01-27 06:42:00,
2013-01-27 00:52:00,52.0,50.0,-100.00,North,10,3.0,6.0,93,0.00,,,0.00,0.000000,,2013-01-27 06:52:00,
2013-01-27 01:01:00,52.0,50.0,-100.00,North,10,3.0,6.0,93,0.00,,,0.00,0.000000,,2013-01-27 07:01:00,
2013-01-27 01:14:00,52.0,50.0,-100.00,North,10,3.0,6.0,93,0.00,,,0.00,0.000000,,2013-01-27 07:14:00,
2013-01-27 01:32:00,52.0,49.0,-100.00,East,93,1.0,7.0,90,0.00,,,0.00,0.000000,,2013-01-27 07:32:00,
2013-01-27 01:42:00,52.0,49.0,-100.00,East,93,1.0,7.0,90,0.00,,,0.00,0.000000,,2013-01-27 07:42:00,
2013-01-27 01:52:00,52.0,49.0,-100.00,East,93,1.0,7.0,90,0.00,,,0.00,0.000000,,2013-01-27 07:52:00,
2013-01-27 02:01:00,52.0,49.0,-100.00,East,93,1.0,7.0,90,0.00,,,0.00,0.000000,,2013-01-27 08:01:00,
2013-01-27 02:11:00,52.0,49.0,-100.00,East,93,1.0,7.0,90,0.00,,,0.00,0.000000,,2013-01-27 08:11:00,
2013-01-27 02:42:00,50.0,48.0,-100.00,ENE,69,1.0,4.0,92,0.00,,,0.00,0.000000,,2013-01-27 08:42:00,
2013-01-27 02:52:00,50.0,48.0,-100.00,ENE,69,1.0,4.0,92,0.00,,,0.00,0.000000,,2013-01-27 08:52:00,
2013-01-27 03:02:00,50.0,48.0,-100.00,ENE,69,1.0,4.0,92,0.00,,,0.00,0.000000,,2013-01-27 09:02:00,
2013-01-27 03:11:00,50.0,48.0,-100.00,ENE,69,1.0,4.0,92,0.00,,,0.00,0.000000,,2013-01-27 09:11:00,
2013-01-27 03:32:00,49.0,47.0,-100.00,East,81,2.0,4.0,93,0.00,,,0.00,0.000000,,2013-01-27 09:32:00,
2013-01-27 03:42:00,49.0,47.0,-100.00,East,81,2.0,4.0,93,0.00,,,0.00,0.000000,,2013-01-27 09:42:00,
2013-01-27 03:52:00,49.0,47.0,-100.00,East,81,2.0,4.0,93,0.00,,,0.00,0.000000,,2013-01-27 09:52:00,
2013-01-27 04:01:00,49.0,47.0,-100.00,East,81,2.0,4.0,93,0.00,,,0.00,0.000000,,2013-01-27 10:01:00,
2013-01-27 04:11:00,49.0,47.0,-100.00,East,81,2.0,4.0,93,0.00,,,0.00,0.000000,,2013-01-27 10:11:00,
2013-01-27 04:42:00,49.0,46.0,-100.00,ENE,65,2.0,4.0,91,0.00,,,0.00,0.000000,,2013-01-27 10:42:00,
2013-01-27 04:52:00,49.0,46.0,-100.00,ENE,65,2.0,4.0,91,0.00,,,0.00,0.000000,,2013-01-27 10:52:00,
2013-01-27 05:01:00,49.0,46.0,-100.00,ENE,65,2.0,4.0,91,0.00,,,0.00,0.000000,,2013-01-27 11:01:00,
2013-01-27 05:11:00,49.0,46.0,-100.00,ENE,65,2.0,4.0,91,0.00,,,0.00,0.000000,,2013-01-27 11:11:00,
2013-01-27 05:42:00,47.0,44.0,-100.00,ENE,58,2.0,5.0,90,0.00,,,-99.99,0.000000,,2013-01-27 11:42:00,
2013-01-27 05:52:00,47.0,44.0,-100.00,ENE,58,2.0,5.0,90,0.00,,,-99.99,0.000000,,2013-01-27 11:52:00,
2013-01-27 06:02:00,47.0,44.0,-100.00,ENE,58,2.0,5.0,90,0.00,,,-99.99,0.000000,,2013-01-27 12:02:00,
2013-01-27 06:11:00,47.0,44.0,-100.00,ENE,58,2.0,5.0,90,0.00,,,-99.99,0.000000,,2013-01-27 12:11:00,
2013-01-27 06:33:00,47.0,44.0,-100.00,ENE,59,2.0,6.0,88,0.00,,,0.00,0.000000,,2013-01-27 12:33:00,
2013-01-27 06:42:00,47.0,44.0,-100.00,ENE,59,2.0,6.0,88,0.00,,,0.00,0.000000,,2013-01-27 12:42:00,
2013-01-27 06:52:00,47.0,44.0,-100.00,ENE,59,2.0,6.0,88,0.00,,,0.00,0.000000,,2013-01-27 12:52:00,
2013-01-27 07:02:00,47.0,44.0,-100.00,ENE,59,2.0,6.0,88,0.00,,,0.00,0.000000,,2013-01-27 13:02:00,
2013-01-27 07:11:00,47.0,44.0,-100.00,ENE,59,2.0,6.0,88,0.00,,,0.00,0.000000,,2013-01-27 13:11:00,
2013-01-27 07:42:00,47.0,42.0,-100.00,ENE,72,3.0,7.0,82,0.00,,,0.00,7.000000,,2013-01-27 13:42:00,
2013-01-27 07:52:00,47.0,42.0,-100.00,ENE,72,3.0,7.0,82,0.00,,,0.00,7.000000,,2013-01-27 13:52:00,
2013-01-27 08:02:00,47.0,42.0,-100.00,ENE,72,3.0,7.0,82,0.00,,,0.00,7.000000,,2013-01-27 14:02:00,
2013-01-27 08:11:00,47.0,42.0,-100.00,ENE,72,3.0,7.0,82,0.00,,,0.00,7.000000,,2013-01-27 14:11:00,
2013-01-27 08:53:00,51.0,40.0,-100.00,East,83,5.0,13.0,67,0.00,,,0.00,82.000000,,2013-01-27 14:53:00,
2013-01-27 09:02:00,51.0,40.0,-100.00,East,83,5.0,13.0,67,0.00,,,0.00,82.000000,,2013-01-27 15:02:00,
2013-01-27 09:12:00,51.0,40.0,-100.00,East,83,5.0,13.0,67,0.00,,,0.00,82.000000,,2013-01-27 15:12:00,
2013-01-27 09:33:00,57.0,41.0,-100.00,East,101,4.0,9.0,54,0.00,,,0.00,213.000000,,2013-01-27 15:33:00,
2013-01-27 09:42:00,57.0,41.0,-100.00,East,101,4.0,9.0,54,0.00,,,0.00,213.000000,,2013-01-27 15:42:00,
2013-01-27 09:53:00,57.0,41.0,-100.00,East,101,4.0,9.0,54,0.00,,,0.00,213.000000,,2013-01-27 15:53:00,
2013-01-27 10:02:00,57.0,41.0,-100.00,East,101,4.0,9.0,54,0.00,,,0.00,213.000000,,2013-01-27 16:02:00,
2013-01-27 10:12:00,57.0,41.0,-100.00,East,101,4.0,9.0,54,0.00,,,0.00,213.000000,,2013-01-27 16:12:00,
2013-01-27 10:33:00,65.0,44.0,-100.00,SSE,147,4.0,7.0,46,0.00,,,0.00,460.000000,,2013-01-27 16:33:00,
2013-01-27 10:42:00,65.0,44.0,-100.00,SSE,147,4.0,7.0,46,0.00,,,0.00,460.000000,,2013-01-27 16:42:00,
2013-01-27 10:53:00,65.0,44.0,-100.00,SSE,147,4.0,7.0,46,0.00,,,0.00,460.000000,,2013-01-27 16:53:00,
2013-01-27 11:02:00,65.0,44.0,-100.00,SSE,147,4.0,7.0,46,0.00,,,0.00,460.000000,,2013-01-27 17:02:00,
2013-01-27 11:12:00,65.0,44.0,-100.00,SSE,147,4.0,7.0,46,0.00,,,0.00,460.000000,,2013-01-27 17:12:00,
2013-01-27 11:42:00,71.0,49.0,-100.00,SSE,156,3.0,7.0,45,0.00,,,0.00,566.000000,,2013-01-27 17:42:00,
2013-01-27 11:53:00,71.0,49.0,-100.00,SSE,156,3.0,7.0,45,0.00,,,0.00,566.000000,,2013-01-27 17:53:00,
2013-01-27 12:02:00,71.0,49.0,-100.00,SSE,156,3.0,7.0,45,0.00,,,0.00,566.000000,,2013-01-27 18:02:00,
2013-01-27 12:11:00,71.0,49.0,-100.00,SSE,156,3.0,7.0,45,0.00,,,0.00,566.000000,,2013-01-27 18:11:00,
2013-01-27 12:42:00,74.0,52.0,-100.00,SSE,151,3.0,7.0,46,0.00,,,0.00,607.000000,,2013-01-27 18:42:00,
2013-01-27 12:52:00,74.0,52.0,-100.00,SSE,151,3.0,7.0,46,0.00,,,0.00,607.000000,,2013-01-27 18:52:00,
2013-01-27 13:02:00,74.0,52.0,-100.00,SSE,151,3.0,7.0,46,0.00,,,0.00,607.000000,,2013-01-27 19:02:00,
2013-01-27 13:11:00,74.0,52.0,-100.00,SSE,151,3.0,7.0,46,0.00,,,0.00,607.000000,,2013-01-27 19:11:00,
2013-01-27 13:33:00,75.0,53.0,-100.00,ENE,64,4.0,9.0,47,0.00,,,0.00,592.000000,,2013-01-27 19:33:00,
2013-01-27 13:42:00,75.0,53.0,-100.00,ENE,64,4.0,9.0,47,0.00,,,0.00,592.000000,,2013-01-27 19:42:00,
2013-01-27 13:52:00,75.0,53.0,-100.00,ENE,64,4.0,9.0,47,0.00,,,0.00,592.000000,,2013-01-27 19:52:00,
2013-01-27 14:02:00,75.0,53.0,-100.00,ENE,64,4.0,9.0,47,0.00,,,0.00,592.000000,,2013-01-27 20:02:00,
2013-01-27 14:11:00,75.0,53.0,-100.00,ENE,64,4.0,9.0,47,0.00,,,0.00,592.000000,,2013-01-27 20:11:00,
2013-01-27 14:42:00,74.0,53.0,-100.00,ESE,116,3.0,11.0,48,0.00,,,0.00,487.000000,,2013-01-27 20:42:00,
2013-01-27 14:52:00,74.0,53.0,-100.00,ESE,116,3.0,11.0,48,0.00,,,0.00,487.000000,,2013-01-27 20:52:00,
2013-01-27 15:02:00,74.0,53.0,-100.00,ESE,116,3.0,11.0,48,0.00,,,0.00,487.000000,,2013-01-27 21:02:00,
2013-01-27 15:12:00,74.0,53.0,-100.00,ESE,116,3.0,11.0,48,0.00,,,0.00,487.000000,,2013-01-27 21:12:00,
2013-01-27 15:33:00,71.0,53.0,-100.00,SE,137,3.0,6.0,53,0.00,,,0.00,223.000000,,2013-01-27 21:33:00,
2013-01-27 15:43:00,71.0,53.0,-100.00,SE,137,3.0,6.0,53,0.00,,,0.00,223.000000,,2013-01-27 21:43:00,
2013-01-27 15:52:00,71.0,53.0,-100.00,SE,137,3.0,6.0,53,0.00,,,0.00,223.000000,,2013-01-27 21:52:00,
2013-01-27 16:02:00,71.0,53.0,-100.00,SE,137,3.0,6.0,53,0.00,,,0.00,223.000000,,2013-01-27 22:02:00,
2013-01-27 16:11:00,71.0,53.0,-100.00,SE,137,3.0,6.0,53,0.00,,,0.00,223.000000,,2013-01-27 22:11:00,
2013-01-27 16:42:00,69.0,53.0,-100.00,ENE,78,4.0,7.0,56,0.00,,,0.00,93.000000,,2013-01-27 22:42:00,
2013-01-27 16:52:00,69.0,53.0,-100.00,ENE,78,4.0,7.0,56,0.00,,,0.00,93.000000,,2013-01-27 22:52:00,
2013-01-27 17:02:00,69.0,53.0,-100.00,ENE,78,4.0,7.0,56,0.00,,,0.00,93.000000,,2013-01-27 23:02:00,
2013-01-27 17:12:00,69.0,53.0,-100.00,ENE,78,4.0,7.0,56,0.00,,,0.00,93.000000,,2013-01-27 23:12:00,
2013-01-27 17:32:00,66.0,54.0,-100.00,East,82,2.0,5.0,65,0.00,,,0.00,36.000000,,2013-01-27 23:32:00,
2013-01-27 17:42:00,66.0,54.0,-100.00,East,82,2.0,5.0,65,0.00,,,0.00,36.000000,,2013-01-27 23:42:00,
2013-01-27 17:53:00,66.0,54.0,-100.00,East,82,2.0,5.0,65,0.00,,,0.00,36.000000,,2013-01-27 23:53:00,
2013-01-27 18:02:00,66.0,54.0,-100.00,East,82,2.0,5.0,65,0.00,,,0.00,36.000000,,2013-01-28 00:02:00,
2013-01-27 18:11:00,66.0,54.0,-100.00,East,82,2.0,5.0,65,0.00,,,0.00,36.000000,,2013-01-28 00:11:00,
2013-01-27 18:42:00,63.0,53.0,-100.00,ENE,59,1.0,4.0,70,0.00,,,0.00,1.000000,,2013-01-28 00:42:00,
2013-01-27 18:52:00,63.0,53.0,-100.00,ENE,59,1.0,4.0,70,0.00,,,0.00,1.000000,,2013-01-28 00:52:00,
2013-01-27 19:02:00,63.0,53.0,-100.00,ENE,59,1.0,4.0,70,0.00,,,0.00,1.000000,,2013-01-28 01:02:00,
2013-01-27 19:11:00,63.0,53.0,-100.00,ENE,59,1.0,4.0,70,0.00,,,0.00,1.000000,,2013-01-28 01:11:00,
2013-01-27 19:42:00,61.0,52.0,-100.00,ENE,76,2.0,4.0,73,0.00,,,0.00,0.000000,,2013-01-28 01:42:00,
2013-01-27 19:52:00,61.0,52.0,-100.00,ENE,76,2.0,4.0,73,0.00,,,0.00,0.000000,,2013-01-28 01:52:00,
2013-01-27 20:02:00,61.0,52.0,-100.00,ENE,76,2.0,4.0,73,0.00,,,0.00,0.000000,,2013-01-28 02:02:00,
2013-01-27 20:11:00,61.0,52.0,-100.00,ENE,76,2.0,4.0,73,0.00,,,0.00,0.000000,,2013-01-28 02:11:00,
2013-01-27 20:42:00,60.0,51.0,-100.00,East,96,3.0,6.0,71,0.00,,,0.00,0.000000,,2013-01-28 02:42:00,
2013-01-27 20:52:00,60.0,51.0,-100.00,East,96,3.0,6.0,71,0.00,,,0.00,0.000000,,2013-01-28 02:52:00,
2013-01-27 21:02:00,60.0,51.0,-100.00,East,96,3.0,6.0,71,0.00,,,0.00,0.000000,,2013-01-28 03:02:00,
2013-01-27 21:12:00,60.0,51.0,-100.00,East,96,3.0,6.0,71,0.00,,,0.00,0.000000,,2013-01-28 03:12:00,
2013-01-27 21:32:00,60.0,50.0,-100.00,SE,128,3.0,6.0,70,0.00,,,0.00,0.000000,,2013-01-28 03:32:00,
2013-01-27 21:42:00,60.0,50.0,-100.00,SE,128,3.0,6.0,70,0.00,,,0.00,0.000000,,2013-01-28 03:42:00,
2013-01-27 21:53:00,60.0,50.0,-100.00,SE,128,3.0,6.0,70,0.00,,,0.00,0.000000,,2013-01-28 03:53:00,
2013-01-27 22:02:00,60.0,50.0,-100.00,SE,128,3.0,6.0,70,0.00,,,0.00,0.000000,,2013-01-28 04:02:00,
2013-01-27 22:11:00,60.0,50.0,-100.00,SE,128,3.0,6.0,70,0.00,,,0.00,0.000000,,2013-01-28 04:11:00,
2013-01-27 22:32:00,59.0,49.0,-100.00,ESE,107,3.0,8.0,70,0.00,,,0.00,0.000000,,2013-01-28 04:32:00,
2013-01-27 22:42:00,59.0,49.0,-100.00,ESE,107,3.0,8.0,70,0.00,,,0.00,0.000000,,2013-01-28 04:42:00,
2013-01-27 22:52:00,59.0,49.0,-100.00,ESE,107,3.0,8.0,70,0.00,,,0.00,0.000000,,2013-01-28 04:52:00,
2013-01-27 23:04:00,59.0,49.0,-100.00,ESE,107,3.0,8.0,70,0.00,,,0.00,0.000000,,2013-01-28 05:04:00,
2013-01-27 23:11:00,59.0,49.0,-100.00,ESE,107,3.0,8.0,70,0.00,,,0.00,0.000000,,2013-01-28 05:11:00,
2013-01-27 23:32:00,56.0,49.0,-100.00,East,84,1.0,5.0,77,0.00,,,0.00,0.000000,,2013-01-28 05:32:00,
2013-01-27 23:42:00,56.0,49.0,-100.00,East,84,1.0,5.0,77,0.00,,,0.00,0.000000,,2013-01-28 05:42:00,
2013-01-27 23:52:00,56.0,49.0,-100.00,East,84,1.0,5.0,77,0.00,,,0.00,0.000000,,2013-01-28 05:52:00,